createdAt,value
2018-04-18T00:00:10.109Z,101639.30
2018-04-18T00:02:37.603Z,101638.77
2018-04-18T00:05:05.089Z,101637.75
2018-04-18T00:07:32.600Z,101638.32
2018-04-18T00:10:00.112Z,101642.66
2018-04-18T00:12:27.868Z,101641.34
2018-04-18T00:14:55.357Z,101639.70
2018-04-18T00:17:22.845Z,101642.66
2018-04-18T00:19:50.353Z,101637.09
2018-04-18T00:22:17.845Z,101643.60
2018-04-18T00:24:45.353Z,101644.84
2018-04-18T00:27:12.862Z,101641.44
2018-04-18T00:29:40.397Z,101646.86
2018-04-18T00:32:07.881Z,101642.84
2018-04-18T00:34:35.370Z,101643.30
2018-04-18T00:37:02.899Z,101651.05
2018-04-18T00:39:30.393Z,101651.14
2018-04-18T00:41:58.305Z,101651.48
2018-04-18T00:44:25.801Z,101658.65
2018-04-18T00:46:53.293Z,101655.11
2018-04-18T00:49:20.805Z,101657.81
2018-04-18T00:51:49.165Z,101664.09
2018-04-18T00:54:16.934Z,101663.29
2018-04-18T00:56:44.416Z,101663.33
2018-04-18T00:59:11.905Z,101660.58
2018-04-18T01:01:39.437Z,101660.30
2018-04-18T01:04:06.929Z,101664.27
2018-04-18T01:06:34.642Z,101661.58
2018-04-18T01:09:02.128Z,101664.32
2018-04-18T01:11:29.640Z,101672.17
2018-04-18T01:13:57.161Z,101665.98
2018-04-18T01:16:24.649Z,101660.31
2018-04-18T01:18:52.384Z,101666.16
2018-04-18T01:21:19.873Z,101672.40
2018-04-18T01:23:47.356Z,101667.94
2018-04-18T01:26:14.862Z,101667.55
2018-04-18T01:28:42.356Z,101671.92
2018-04-18T01:31:10.057Z,101673.31
2018-04-18T01:33:37.549Z,101676.06
2018-04-18T01:36:05.057Z,101677.77
2018-04-18T01:38:32.569Z,101676.43
2018-04-18T01:41:00.069Z,101676.98
2018-04-18T01:43:27.712Z,101687.55
2018-04-18T01:45:55.193Z,101685.78
2018-04-18T01:48:22.681Z,101685.72
2018-04-18T01:50:50.191Z,101690.16
2018-04-18T01:53:17.701Z,101685.75
2018-04-18T01:55:45.372Z,101691.55
2018-04-18T01:58:12.848Z,101694.22
2018-04-18T02:00:40.337Z,101697.36
2018-04-18T02:03:07.849Z,101692.98
2018-04-18T02:05:35.357Z,101692.52
2018-04-18T02:08:03.146Z,101697.86
2018-04-18T02:10:30.629Z,101696.45
2018-04-18T02:12:58.124Z,101702.27
2018-04-18T02:15:25.624Z,101701.39
2018-04-18T02:17:53.100Z,101708.02
2018-04-18T02:20:20.884Z,101705.33
2018-04-18T02:22:48.359Z,101711.98
2018-04-18T02:25:15.828Z,101711.14
2018-04-18T02:27:43.357Z,101714.69
2018-04-18T02:30:10.833Z,101710.25
2018-04-18T02:32:39.176Z,101718.66
2018-04-18T02:35:06.655Z,101723.08
2018-04-18T02:37:34.146Z,101716.48
2018-04-18T02:40:01.686Z,101721.77
2018-04-18T02:42:29.162Z,101725.30
2018-04-18T02:44:56.927Z,101723.97
2018-04-18T02:47:24.421Z,101720.45
2018-04-18T02:49:51.897Z,101723.11
2018-04-18T02:52:19.409Z,101724.39
2018-04-18T02:54:46.918Z,101723.52
2018-04-18T02:57:14.557Z,101723.53
2018-04-18T02:59:42.037Z,101727.95
2018-04-18T03:02:09.675Z,101727.09
2018-04-18T03:04:37.189Z,101731.91
2018-04-18T03:07:04.666Z,101733.25
2018-04-18T03:09:32.475Z,101731.46
2018-04-18T03:11:59.953Z,101737.67
2018-04-18T03:14:27.433Z,101735.91
2018-04-18T03:16:54.929Z,101735.88
2018-04-18T03:19:22.405Z,101733.22
2018-04-18T03:21:50.189Z,101736.73
2018-04-18T03:24:17.669Z,101736.73
2018-04-18T03:26:45.150Z,101736.32
2018-04-18T03:29:12.669Z,101741.12
2018-04-18T03:31:40.147Z,101738.98
2018-04-18T03:34:07.833Z,101739.38
2018-04-18T03:36:35.311Z,101748.14
2018-04-18T03:39:02.785Z,101745.09
2018-04-18T03:41:30.305Z,101741.56
2018-04-18T03:43:57.797Z,101747.30
2018-04-18T03:46:25.700Z,101749.95
2018-04-18T03:48:53.193Z,101752.23
2018-04-18T03:51:20.669Z,101755.70
2018-04-18T03:53:48.194Z,101754.88
2018-04-18T03:56:15.702Z,101754.44
2018-04-18T03:58:43.349Z,101754.84
2018-04-18T04:01:10.846Z,101751.67
2018-04-18T04:03:38.325Z,101757.90
2018-04-18T04:06:05.830Z,101758.78
2018-04-18T04:08:33.308Z,101758.83
2018-04-18T04:11:01.007Z,101757.50
2018-04-18T04:13:28.493Z,101760.19
2018-04-18T04:15:55.983Z,101765.93
2018-04-18T04:18:35.293Z,101767.66
2018-04-18T04:21:14.666Z,101770.27
2018-04-18T04:23:54.049Z,101773.80
2018-04-18T04:26:21.525Z,101776.84
2018-04-18T04:28:49.241Z,101775.56
2018-04-18T04:31:17.613Z,101777.78
2018-04-18T04:33:45.105Z,101775.61
2018-04-18T04:36:12.630Z,101772.91
2018-04-18T04:38:40.109Z,101777.77
2018-04-18T04:41:07.628Z,101785.28
2018-04-18T04:43:35.110Z,101776.83
2018-04-18T04:46:02.584Z,101775.08
2018-04-18T04:48:30.085Z,101779.98
2018-04-18T04:50:57.585Z,101782.24
2018-04-18T04:53:25.105Z,101790.20
2018-04-18T04:55:52.582Z,101787.14
2018-04-18T04:58:20.070Z,101787.98
2018-04-18T05:00:47.577Z,101790.63
2018-04-18T05:03:15.077Z,101798.14
2018-04-18T05:05:42.597Z,101795.98
2018-04-18T05:08:10.078Z,101799.08
2018-04-18T05:10:37.560Z,101799.95
2018-04-18T05:13:05.105Z,101806.67
2018-04-18T05:15:32.577Z,101807.57
2018-04-18T05:18:00.270Z,101813.32
2018-04-18T05:20:27.813Z,101818.19
2018-04-18T05:22:55.381Z,101825.27
2018-04-18T05:25:22.876Z,101825.69
2018-04-18T05:27:50.364Z,101824.38
2018-04-18T05:30:17.890Z,101818.57
2018-04-18T05:32:45.365Z,101823.37
2018-04-18T05:35:12.841Z,101829.14
2018-04-18T05:37:40.354Z,101832.53
2018-04-18T05:40:07.865Z,101835.97
2018-04-18T05:42:35.590Z,101834.46
2018-04-18T05:45:03.097Z,101830.70
2018-04-18T05:47:30.581Z,101832.01
2018-04-18T05:49:58.084Z,101831.26
2018-04-18T05:52:25.570Z,101832.80
2018-04-18T05:54:53.104Z,101840.28
2018-04-18T05:57:20.580Z,101839.89
2018-04-18T05:59:48.057Z,101837.00
2018-04-18T06:02:15.568Z,101833.16
2018-04-18T06:04:43.076Z,101839.79
2018-04-18T06:07:10.779Z,101842.02
2018-04-18T06:09:38.261Z,101841.67
2018-04-18T06:12:05.750Z,101838.14
2018-04-18T06:14:33.277Z,101830.91
2018-04-18T06:17:00.781Z,101831.03
2018-04-18T06:19:28.549Z,101838.17
2018-04-18T06:21:56.029Z,101832.57
2018-04-18T06:24:23.529Z,101837.49
2018-04-18T06:26:51.054Z,101835.63
2018-04-18T06:29:18.544Z,101839.86
2018-04-18T06:31:46.073Z,101838.31
2018-04-18T06:34:13.561Z,101841.84
2018-04-18T06:36:41.049Z,101845.30
2018-04-18T06:39:08.580Z,101843.97
2018-04-18T06:41:36.081Z,101848.30
2018-04-18T06:44:03.600Z,101846.05
2018-04-18T06:46:31.085Z,101849.83
2018-04-18T06:48:58.561Z,101851.99
2018-04-18T06:51:26.096Z,101847.58
2018-04-18T06:53:53.589Z,101846.82
2018-04-18T06:56:21.322Z,101853.26
2018-04-18T06:58:48.805Z,101854.92
2018-04-18T07:01:16.304Z,101855.36
2018-04-18T07:03:43.836Z,101854.05
2018-04-18T07:06:11.420Z,101856.87
2018-04-18T07:08:39.300Z,101849.99
2018-04-18T07:11:06.836Z,101859.55
2018-04-18T07:13:34.343Z,101858.09
2018-04-18T07:16:01.853Z,101858.80
2018-04-18T07:18:29.341Z,101860.70
2018-04-18T07:20:56.873Z,101864.67
2018-04-18T07:23:24.361Z,101857.78
2018-04-18T07:25:51.872Z,101858.24
2018-04-18T07:28:19.388Z,101857.03
2018-04-18T07:30:46.889Z,101861.86
2018-04-18T07:33:14.440Z,101863.91
2018-04-18T07:35:41.930Z,101861.66
2018-04-18T07:38:09.419Z,101862.49
2018-04-18T07:40:36.952Z,101864.73
2018-04-18T07:43:04.440Z,101870.06
2018-04-18T07:45:32.109Z,101876.38
2018-04-18T07:47:59.592Z,101879.22
2018-04-18T07:50:27.077Z,101868.24
2018-04-18T07:52:54.612Z,101867.84
2018-04-18T07:55:22.104Z,101866.26
2018-04-18T07:57:49.761Z,101866.92
2018-04-18T08:00:17.281Z,101871.03
2018-04-18T08:02:44.769Z,101870.65
2018-04-18T08:05:12.322Z,101869.67
2018-04-18T08:07:39.810Z,101873.30
2018-04-18T08:10:07.653Z,101875.41
2018-04-18T08:12:35.153Z,101877.09
2018-04-18T08:15:02.642Z,101875.75
2018-04-18T08:17:30.153Z,101874.73
2018-04-18T08:19:57.673Z,101870.91
2018-04-18T08:22:25.193Z,101878.60
2018-04-18T08:24:52.697Z,101882.58
2018-04-18T08:27:20.185Z,101876.14
2018-04-18T08:29:47.693Z,101881.70
2018-04-18T08:32:15.203Z,101881.13
2018-04-18T08:34:43.378Z,101879.51
2018-04-18T08:37:10.971Z,101875.44
2018-04-18T08:39:38.471Z,101879.89
2018-04-18T08:42:05.974Z,101873.48
2018-04-18T08:44:33.803Z,101879.39
2018-04-18T08:47:01.438Z,101875.38
2018-04-18T08:49:28.938Z,101877.55
2018-04-18T08:51:56.629Z,101875.67
2018-04-18T08:54:24.141Z,101875.03
2018-04-18T08:56:51.637Z,101878.30
2018-04-18T08:59:19.169Z,101879.47
2018-04-18T09:01:46.661Z,101872.41
2018-04-18T09:04:14.149Z,101878.72
2018-04-18T09:06:41.662Z,101878.00
2018-04-18T09:09:09.169Z,101868.69
2018-04-18T09:11:36.927Z,101870.25
2018-04-18T09:14:04.413Z,101877.41
2018-04-18T09:16:31.901Z,101867.91
2018-04-18T09:18:59.416Z,101867.16
2018-04-18T09:21:26.900Z,101859.52
2018-04-18T09:23:54.718Z,101868.61
2018-04-18T09:26:22.206Z,101864.40
2018-04-18T09:28:49.704Z,101866.09
2018-04-18T09:31:17.208Z,101868.00
2018-04-18T09:33:44.693Z,101865.02
2018-04-18T09:36:12.379Z,101858.30
2018-04-18T09:38:39.857Z,101871.44
2018-04-18T09:41:07.365Z,101865.21
2018-04-18T09:43:34.898Z,101865.96
2018-04-18T09:46:02.375Z,101859.69
2018-04-18T09:48:30.189Z,101861.02
2018-04-18T09:50:57.673Z,101865.12
2018-04-18T09:53:25.161Z,101857.03
2018-04-18T09:55:52.763Z,101858.44
2018-04-18T09:58:20.316Z,101856.86
2018-04-18T10:01:02.605Z,101861.73
2018-04-18T10:03:30.086Z,101858.95
2018-04-18T10:05:57.567Z,101858.16
2018-04-18T10:08:25.096Z,101856.22
2018-04-18T10:10:52.604Z,101861.97
2018-04-18T10:13:20.149Z,101860.72
2018-04-18T10:15:47.675Z,101854.69
2018-04-18T10:18:15.192Z,101858.25
2018-04-18T10:20:42.705Z,101847.22
2018-04-18T10:23:10.212Z,101848.81
2018-04-18T10:25:38.037Z,101851.41
2018-04-18T10:28:05.527Z,101847.58
2018-04-18T10:30:33.040Z,101847.89
2018-04-18T10:33:00.566Z,101847.19
2018-04-18T10:35:28.062Z,101843.54
2018-04-18T10:37:55.736Z,101843.63
2018-04-18T10:40:23.233Z,101843.13
2018-04-18T10:42:50.729Z,101840.77
2018-04-18T10:45:18.241Z,101832.30
2018-04-18T10:47:45.741Z,101837.88
2018-04-18T10:50:13.369Z,101832.73
2018-04-18T10:52:40.884Z,101834.86
2018-04-18T10:55:08.365Z,101824.87
2018-04-18T10:57:35.881Z,101817.27
2018-04-18T11:00:03.378Z,101827.13
2018-04-18T11:02:31.112Z,101823.20
2018-04-18T11:04:58.623Z,101819.69
2018-04-18T11:07:26.123Z,101822.47
2018-04-18T11:09:53.633Z,101820.92
2018-04-18T11:12:21.115Z,101818.45
2018-04-18T11:14:48.652Z,101812.27
2018-04-18T11:17:16.149Z,101811.53
2018-04-18T11:19:43.637Z,101815.36
2018-04-18T11:22:11.152Z,101813.04
2018-04-18T11:24:38.653Z,101806.25
2018-04-18T11:27:06.273Z,101815.55
2018-04-18T11:29:33.778Z,101809.87
2018-04-18T11:32:01.257Z,101810.61
2018-04-18T11:34:28.782Z,101805.05
2018-04-18T11:36:56.277Z,101804.25
2018-04-18T11:39:23.945Z,101806.11
2018-04-18T11:41:51.429Z,101803.05
2018-04-18T11:44:18.908Z,101796.09
2018-04-18T11:46:46.418Z,101800.06
2018-04-18T11:49:13.904Z,101796.14
2018-04-18T11:51:41.625Z,101799.00
2018-04-18T11:54:09.105Z,101794.44
2018-04-18T11:56:36.701Z,101795.80
2018-04-18T11:59:04.245Z,101791.56
2018-04-18T12:01:31.725Z,101788.95
2018-04-18T12:03:59.241Z,101789.73
2018-04-18T12:06:26.769Z,101788.30
2018-04-18T12:08:54.257Z,101783.44
2018-04-18T12:11:21.796Z,101783.18
2018-04-18T12:13:49.285Z,101784.05
2018-04-18T12:16:16.950Z,101786.22
2018-04-18T12:18:44.450Z,101782.91
2018-04-18T12:21:11.945Z,101778.28
2018-04-18T12:23:39.482Z,101780.14
2018-04-18T12:26:06.966Z,101780.91
2018-04-18T12:28:34.497Z,101779.37
2018-04-18T12:31:01.989Z,101775.72
2018-04-18T12:33:29.474Z,101777.94
2018-04-18T12:35:57.001Z,101782.94
2018-04-18T12:38:24.489Z,101777.34
2018-04-18T12:40:52.001Z,101773.65
2018-04-18T12:43:19.497Z,101764.18
2018-04-18T12:45:47.261Z,101773.56
2018-04-18T12:48:14.768Z,101764.63
2018-04-18T12:50:42.254Z,101766.59
2018-04-18T12:53:10.019Z,101764.36
2018-04-18T12:55:37.516Z,101763.28
2018-04-18T12:58:05.021Z,101763.98
2018-04-18T13:00:32.530Z,101763.64
2018-04-18T13:03:00.025Z,101758.54
2018-04-18T13:05:27.670Z,101753.53
2018-04-18T13:07:55.169Z,101757.81
2018-04-18T13:10:22.649Z,101747.16
2018-04-18T13:12:50.154Z,101750.00
2018-04-18T13:15:17.650Z,101745.80
2018-04-18T13:17:45.181Z,101743.78
2018-04-18T13:20:12.665Z,101734.42
2018-04-18T13:22:40.157Z,101735.84
2018-04-18T13:25:07.670Z,101736.40
2018-04-18T13:27:35.182Z,101724.39
2018-04-18T13:30:02.706Z,101723.91
2018-04-18T13:32:30.193Z,101729.89
2018-04-18T13:34:57.669Z,101719.33
2018-04-18T13:37:25.184Z,101711.61
2018-04-18T13:39:52.748Z,101717.25
2018-04-18T13:42:20.557Z,101711.44
2018-04-18T13:44:48.050Z,101717.82
2018-04-18T13:47:15.542Z,101710.16
2018-04-18T13:49:43.049Z,101708.03
2018-04-18T13:52:10.579Z,101700.94
2018-04-18T13:54:38.149Z,101696.47
2018-04-18T13:57:05.625Z,101695.84
2018-04-18T13:59:33.110Z,101690.47
2018-04-18T14:02:00.629Z,101693.46
2018-04-18T14:04:28.192Z,101691.97
2018-04-18T14:06:55.895Z,101681.63
2018-04-18T14:09:23.389Z,101685.00
2018-04-18T14:11:50.876Z,101685.81
2018-04-18T14:14:18.434Z,101681.81
2018-04-18T14:16:45.925Z,101676.59
2018-04-18T14:19:13.513Z,101675.48
2018-04-18T14:21:40.994Z,101673.58
2018-04-18T14:24:08.490Z,101684.64
2018-04-18T14:26:36.045Z,101669.93
2018-04-18T14:29:03.540Z,101678.36
2018-04-18T14:31:31.467Z,101663.17
2018-04-18T14:33:58.945Z,101671.94
2018-04-18T14:36:26.430Z,101664.97
2018-04-18T14:38:53.937Z,101670.11
2018-04-18T14:41:21.421Z,101659.89
2018-04-18T14:43:48.961Z,101662.67
2018-04-18T14:46:16.442Z,101654.23
2018-04-18T14:48:43.931Z,101653.88
2018-04-18T14:51:11.453Z,101653.35
2018-04-18T14:53:38.936Z,101653.70
2018-04-18T14:56:06.467Z,101651.73
2018-04-18T14:58:33.964Z,101643.98
2018-04-18T15:01:01.470Z,101642.92
2018-04-18T15:03:28.972Z,101641.64
2018-04-18T15:05:56.456Z,101640.42
2018-04-18T15:08:24.321Z,101635.67
2018-04-18T15:10:51.805Z,101641.03
2018-04-18T15:13:19.290Z,101641.55
2018-04-18T15:15:46.811Z,101647.26
2018-04-18T15:18:14.295Z,101641.63
2018-04-18T15:20:42.162Z,101631.97
2018-04-18T15:23:09.649Z,101629.95
2018-04-18T15:25:37.132Z,101631.34
2018-04-18T15:28:04.666Z,101631.42
2018-04-18T15:30:32.174Z,101636.50
2018-04-18T15:32:59.846Z,101636.85
2018-04-18T15:35:27.349Z,101631.17
2018-04-18T15:37:54.825Z,101632.08
2018-04-18T15:40:22.333Z,101629.13
2018-04-18T15:42:49.829Z,101623.47
2018-04-18T15:45:17.505Z,101629.64
2018-04-18T15:47:45.109Z,101626.91
2018-04-18T15:50:12.593Z,101630.67
2018-04-18T15:52:40.103Z,101631.45
2018-04-18T15:55:07.595Z,101623.09
2018-04-18T15:57:35.141Z,101625.06
2018-04-18T16:00:02.629Z,101618.22
2018-04-18T16:02:30.105Z,101619.55
2018-04-18T16:04:57.646Z,101609.91
2018-04-18T16:07:25.124Z,101611.44
2018-04-18T16:09:52.849Z,101612.10
2018-04-18T16:12:20.325Z,101606.64
2018-04-18T16:14:47.806Z,101604.42
2018-04-18T16:17:15.311Z,101605.78
2018-04-18T16:19:42.797Z,101606.30
2018-04-18T16:22:10.313Z,101602.28
2018-04-18T16:24:37.805Z,101602.13
2018-04-18T16:27:05.300Z,101598.48
2018-04-18T16:29:43.736Z,101590.83
2018-04-18T16:32:11.213Z,101592.94
2018-04-18T16:34:39.173Z,101589.80
2018-04-18T16:37:06.689Z,101594.58
2018-04-18T16:39:34.180Z,101591.02
2018-04-18T16:42:01.727Z,101592.38
2018-04-18T16:44:29.288Z,101585.69
2018-04-18T16:46:56.817Z,101588.66
2018-04-18T16:49:24.334Z,101579.43
2018-04-18T16:51:51.819Z,101579.19
2018-04-18T16:54:19.340Z,101585.97
2018-04-18T16:56:46.823Z,101583.61
2018-04-18T16:59:14.368Z,101580.48
2018-04-18T17:01:41.853Z,101576.99
2018-04-18T17:04:09.346Z,101580.91
2018-04-18T17:06:36.913Z,101581.78
2018-04-18T17:09:04.394Z,101578.75
2018-04-18T17:11:32.141Z,101584.38
2018-04-18T17:13:59.628Z,101572.21
2018-04-18T17:16:27.121Z,101574.88
2018-04-18T17:18:54.633Z,101576.89
2018-04-18T17:21:22.121Z,101575.03
2018-04-18T17:23:49.625Z,101565.75
2018-04-18T17:26:17.113Z,101574.16
2018-04-18T17:28:44.597Z,101573.51
2018-04-18T17:31:12.101Z,101567.25
2018-04-18T17:33:39.585Z,101561.64
2018-04-18T17:36:07.062Z,101567.77
2018-04-18T17:38:34.590Z,101568.73
2018-04-18T17:41:02.144Z,101560.13
2018-04-18T17:43:29.598Z,101554.31
2018-04-18T17:45:57.101Z,101556.84
2018-04-18T17:48:24.586Z,101550.46
2018-04-18T17:50:52.165Z,101558.17
2018-04-18T17:53:19.989Z,101558.98
2018-04-18T17:55:47.477Z,101560.05
2018-04-18T17:58:14.968Z,101555.52
2018-04-18T18:00:42.822Z,101557.15
2018-04-18T18:03:10.302Z,101559.73
2018-04-18T18:05:37.782Z,101564.58
2018-04-18T18:08:05.612Z,101562.75
2018-04-18T18:10:33.113Z,101562.48
2018-04-18T18:13:00.601Z,101562.02
2018-04-18T18:15:28.301Z,101562.08
2018-04-18T18:17:55.786Z,101568.40
2018-04-18T18:20:23.291Z,101561.66
2018-04-18T18:22:50.918Z,101568.70
2018-04-18T18:25:18.423Z,101576.08
2018-04-18T18:27:45.922Z,101580.27
2018-04-18T18:30:13.454Z,101576.98
2018-04-18T18:32:40.943Z,101580.09
2018-04-18T18:35:08.421Z,101581.91
2018-04-18T18:37:36.173Z,101583.52
2018-04-18T18:40:03.675Z,101581.06
2018-04-18T18:42:31.161Z,101578.66
2018-04-18T18:44:58.869Z,101579.23
2018-04-18T18:47:27.297Z,101580.66
2018-04-18T18:49:54.793Z,101586.77
2018-04-18T18:52:22.620Z,101580.91
2018-04-18T18:54:50.371Z,101583.18
2018-04-18T18:57:18.088Z,101584.01
2018-04-18T18:59:45.958Z,101588.68
2018-04-18T19:02:13.820Z,101588.05
2018-04-18T19:04:42.037Z,101593.05
2018-04-18T19:07:09.981Z,101581.52
2018-04-18T19:09:38.045Z,101593.29
2018-04-18T19:12:05.990Z,101592.67
2018-04-18T19:14:33.998Z,101599.00
2018-04-18T19:17:02.917Z,101598.77
2018-04-18T19:19:30.971Z,101599.42
2018-04-18T19:21:58.816Z,101599.28
2018-04-18T19:24:26.501Z,101600.40
2018-04-18T19:26:54.487Z,101600.59
2018-04-18T19:29:22.437Z,101606.73
2018-04-18T19:31:50.248Z,101607.38
2018-04-18T19:34:17.891Z,101605.69
2018-04-18T19:36:45.906Z,101607.59
2018-04-18T19:39:15.380Z,101611.73
2018-04-18T19:41:43.145Z,101611.31
2018-04-18T19:44:11.285Z,101614.07
2018-04-18T19:46:39.164Z,101612.83
2018-04-18T19:49:07.254Z,101614.07
2018-04-18T19:51:35.542Z,101617.55
2018-04-18T19:54:03.410Z,101615.97
2018-04-18T19:56:31.508Z,101619.25
2018-04-18T19:58:59.128Z,101619.33
2018-04-18T20:01:27.170Z,101614.77
2018-04-18T20:03:55.037Z,101614.53
2018-04-18T20:06:22.696Z,101611.20
2018-04-18T20:08:50.247Z,101619.73
2018-04-18T20:11:17.806Z,101611.44
2018-04-18T20:13:46.337Z,101609.37
2018-04-18T20:16:13.867Z,101612.61
2018-04-18T20:18:41.385Z,101613.95
2018-04-18T20:21:09.019Z,101608.45
2018-04-18T20:23:36.506Z,101607.51
2018-04-18T20:26:04.057Z,101601.47
2018-04-18T20:28:31.549Z,101600.90
2018-04-18T20:30:59.046Z,101607.94
2018-04-18T20:33:26.587Z,101603.30
2018-04-18T20:35:54.099Z,101605.38
2018-04-18T20:38:21.625Z,101604.41
2018-04-18T20:40:49.144Z,101601.63
2018-04-18T20:43:16.638Z,101604.59
2018-04-18T20:45:44.154Z,101604.61
2018-04-18T20:48:11.661Z,101610.05
2018-04-18T20:50:39.161Z,101611.11
2018-04-18T20:53:06.682Z,101605.16
2018-04-18T20:55:34.248Z,101600.55
2018-04-18T20:58:01.707Z,101603.05
2018-04-18T21:00:29.213Z,101609.58
2018-04-18T21:02:56.693Z,101606.62
2018-04-18T21:05:24.177Z,101608.95
2018-04-18T21:07:51.685Z,101610.57
2018-04-18T21:10:19.178Z,101609.87
2018-04-18T21:12:46.675Z,101603.37
2018-04-18T21:15:14.201Z,101603.93
2018-04-18T21:17:41.701Z,101605.41
2018-04-18T21:20:09.188Z,101601.81
2018-04-18T21:22:36.693Z,101605.12
2018-04-18T21:25:04.178Z,101607.70
2018-04-18T21:27:31.765Z,101612.51
2018-04-18T21:29:59.406Z,101611.89
2018-04-18T21:32:26.892Z,101612.16
2018-04-18T21:34:54.378Z,101605.88
2018-04-18T21:37:22.237Z,101616.37
2018-04-18T21:39:49.735Z,101610.33
2018-04-18T21:42:17.213Z,101610.54
2018-04-18T21:44:44.805Z,101614.88
2018-04-18T21:47:12.293Z,101618.25
2018-04-18T21:49:39.772Z,101611.69
2018-04-18T21:52:07.528Z,101611.25
2018-04-18T21:54:35.013Z,101613.09
2018-04-18T21:57:02.489Z,101610.92
2018-04-18T21:59:30.161Z,101613.55
2018-04-18T22:01:57.637Z,101614.15
2018-04-18T22:04:25.172Z,101609.42
2018-04-18T22:06:52.776Z,101614.69
2018-04-18T22:09:20.280Z,101613.55
2018-04-18T22:11:47.765Z,101614.27
2018-04-18T22:14:15.281Z,101611.88
2018-04-18T22:16:42.780Z,101611.94
2018-04-18T22:19:10.261Z,101619.63
2018-04-18T22:21:37.904Z,101616.75
2018-04-18T22:24:05.385Z,101614.33
2018-04-18T22:26:32.868Z,101620.50
2018-04-18T22:29:00.621Z,101616.48
2018-04-18T22:31:28.103Z,101618.77
2018-04-18T22:33:55.587Z,101621.92
2018-04-18T22:36:23.341Z,101619.25
2018-04-18T22:38:50.831Z,101617.69
2018-04-18T22:41:18.317Z,101622.48
2018-04-18T22:43:45.833Z,101625.02
2018-04-18T22:46:13.325Z,101623.05
2018-04-18T22:48:40.814Z,101624.97
2018-04-18T22:51:08.353Z,101624.88
2018-04-18T22:53:35.837Z,101624.98
2018-04-18T22:56:03.318Z,101623.50
2018-04-18T22:58:30.825Z,101620.12
2018-04-18T23:00:58.308Z,101625.37
2018-04-18T23:03:25.825Z,101626.50
2018-04-18T23:05:53.309Z,101618.69
2018-04-18T23:08:20.785Z,101623.85
2018-04-18T23:10:48.292Z,101627.91
2018-04-18T23:13:15.792Z,101627.10
2018-04-18T23:15:43.573Z,101627.68
2018-04-18T23:18:11.067Z,101630.20
2018-04-18T23:20:38.558Z,101628.61
2018-04-18T23:23:06.069Z,101628.16
2018-04-18T23:25:33.559Z,101629.63
2018-04-18T23:28:01.225Z,101625.07
2018-04-18T23:30:28.731Z,101633.44
2018-04-18T23:32:56.214Z,101627.38
2018-04-18T23:35:23.724Z,101631.19
2018-04-18T23:37:51.229Z,101633.44
2018-04-18T23:40:18.985Z,101632.14
2018-04-18T23:42:46.469Z,101629.63
2018-04-18T23:45:13.953Z,101632.14
2018-04-18T23:47:41.461Z,101622.56
2018-04-18T23:50:08.950Z,101631.98
2018-04-18T23:52:36.486Z,101621.41
2018-04-18T23:55:04.037Z,101627.42
2018-04-18T23:57:31.537Z,101626.28
2018-04-18T23:59:59.053Z,101626.10
